Anderson, SC

5:50 AM EDT en Agosto 22, 2014 (GMT -0400)
Anderson Regional | Change Station
CLOSE
Current Station
Aeropuerto
Location: Anderson,
Altura: 781 ft
Estaciones meteorológicas cercanas

Alt 781 ft 34.50 °N, 82.71 °W | Updated 54 minutes ago

Clear
Despejado
71 ° F
Sensación térmica 71 ° F
N
0
Viento Variable Viento desde Norte

Hoy
Alta -- | Baja -- ° F
--% Posibilidad de precipitaciones
Ayer
Alta -- | Baja -- ° F
Precip. -- pul
6:56 AM 8:09 PM
Creciente menguante, 9% visible
Presión 30.02 pul
Visibilidad 10.0 Millas
Nubes Despejado
Punto de rocío 69 ° F
Humedad 93%
Precipitaciones 0.00 pul
Espesor de la nieve No disponible.
UV 0 de una escala de 12
Polen 9.00 de una escala de 12
Ozono Buena
PM2.5 Buena
Flu Activity No disponible.
METAR KAND 220856Z AUTO 00000KT 10SM CLR 22/21 A3005 RMK AO2 SLP165 T02170206 56015

More Conditions Fewer Conditions

Presión 30.02 pul
Visibilidad 10.0 Millas
Nubes Despejado
Punto de rocío 69 ° F
Humedad 93%
Precipitaciones 0.00 pul
Espesor de la nieve No disponible.
UV 0 de una escala de 12
Polen 9.00 de una escala de 12
Ozono Buena
PM2.5 Buena
Flu Activity No disponible.
METAR KAND 220856Z AUTO 00000KT 10SM CLR 22/21 A3005 RMK AO2 SLP165 T02170206 56015

More Conditions Fewer Conditions

10-Day Weather Forecast

Almanac

Astronomía

Aug. 22, 2014 Salida Puesta
Hora real 6:56 AM EDT 8:09 PM EDT
Crepúsculo civil 6:30 AM EDT 8:35 PM EDT
Crepúsculo náutico 5:59 AM EDT 9:07 PM EDT
Crepúsculo astronómico 5:26 AM EDT 9:39 PM EDT
Luna 4:21 AM EDT 6:15 PM EDT
Horas de luz 14h 05m
Horas de luz
13h 13m
Tomorrow will be 1m 59s shorter.
Creciente menguante, 9% of the Moon is Illuminated
Hoy
Creciente menguante
Ago 25
Nueva
Sep 2
Cuarto creciente
Sep 8
Luna llena
Sep 15
Cuarto menguante

Extremos de hoy

Máximos del estado Bajos del estado

Community

WunderPhotos

Upload Photos

1,746,146 ¡fotos cargadas!

Nearby

Calidad del aire

  Calidad del aire Índice AQ Contaminante
Ayer Moderada
OZONE
Ayer Buena
PM2.5
Real Buena
PM2.5
Real Buena
OZONE
Viernes Buena
OZONE

Grosos de nieve

Estación Profundido Altura
No tenemos constancia de nieve nueva.

Actividad de terremotos

Ciudad Distance Mag. Tiempo y dato
No hay informes recientes de la actividad sísmica.
Magnitud mínima muestra es 2,5.

Temperaturas de aguas costeras

Lugar Temperatura
Sin partes meteorológicos de las estaciones

Estaciones meteorológicas cercanas